createdAt,value
2019-05-15T00:02:28.067Z,9.77
2019-05-15T00:04:58.491Z,8.37
2019-05-15T00:07:29.346Z,9.83
2019-05-15T00:09:59.071Z,9.40
2019-05-15T00:12:28.630Z,8.87
2019-05-15T00:14:58.209Z,13.73
2019-05-15T00:17:28.272Z,8.90
2019-05-15T00:19:58.267Z,13.40
2019-05-15T00:22:29.151Z,10.03
2019-05-15T00:24:58.716Z,10.67
2019-05-15T00:27:28.557Z,8.97
2019-05-15T00:29:58.160Z,9.50
2019-05-15T00:32:28.234Z,10.73
2019-05-15T00:34:58.261Z,9.53
2019-05-15T00:37:28.889Z,12.40
2019-05-15T00:39:59.191Z,9.73
2019-05-15T00:42:28.762Z,10.17
2019-05-15T00:44:58.536Z,9.97
2019-05-15T00:47:28.653Z,9.30
2019-05-15T00:49:58.177Z,10.23
2019-05-15T00:52:28.273Z,9.83
2019-05-15T00:55:00.419Z,8.50
2019-05-15T00:57:29.920Z,8.77
2019-05-15T00:59:59.369Z,9.80
2019-05-15T01:02:28.828Z,8.70
2019-05-15T01:04:59.386Z,8.67
2019-05-15T01:07:28.769Z,10.70
2019-05-15T01:09:58.199Z,12.57
2019-05-15T01:12:29.451Z,11.07
2019-05-15T01:14:58.869Z,8.40
2019-05-15T01:17:29.131Z,10.43
2019-05-15T01:19:58.880Z,10.57
2019-05-15T01:22:28.721Z,11.03
2019-05-15T01:24:58.960Z,9.57
2019-05-15T01:27:29.174Z,7.00
2019-05-15T01:29:58.818Z,8.57
2019-05-15T01:32:28.521Z,10.43
2019-05-15T01:34:58.181Z,9.83
2019-05-15T01:37:28.220Z,12.70
2019-05-15T01:39:58.189Z,8.17
2019-05-15T01:42:28.091Z,10.37
2019-05-15T01:44:58.988Z,10.30
2019-05-15T01:47:28.482Z,10.73
2019-05-15T01:49:58.329Z,11.20
2019-05-15T01:52:47.934Z,10.30
2019-05-15T01:55:18.188Z,10.60
2019-05-15T01:58:08.847Z,10.90
2019-05-15T02:00:39.101Z,10.47
2019-05-15T02:03:10.020Z,10.67
2019-05-15T02:05:39.787Z,9.67
2019-05-15T02:08:09.206Z,8.00
2019-05-15T02:10:39.383Z,8.80
2019-05-15T02:13:08.998Z,10.30
2019-05-15T02:15:39.618Z,9.60
2019-05-15T02:18:09.222Z,10.13
2019-05-15T02:20:39.191Z,11.00
2019-05-15T02:23:11.757Z,13.13
2019-05-15T02:25:40.229Z,12.40
2019-05-15T02:28:09.683Z,10.33
2019-05-15T02:30:40.681Z,10.73
2019-05-15T02:33:11.036Z,11.73
2019-05-15T02:35:40.649Z,10.10
2019-05-15T02:38:15.113Z,11.57
2019-05-15T02:40:41.231Z,12.53
2019-05-15T02:43:14.442Z,9.23
2019-05-15T02:45:43.823Z,11.27
2019-05-15T02:48:13.250Z,9.37
2019-05-15T02:50:42.627Z,10.17
2019-05-15T02:56:20.271Z,8.53
2019-05-15T02:58:49.267Z,11.17
2019-05-15T03:01:19.136Z,10.33
2019-05-15T03:03:49.684Z,10.63
2019-05-15T03:06:20.640Z,8.70
2019-05-15T03:11:49.214Z,10.77
2019-05-15T03:14:16.887Z,10.90
2019-05-15T03:16:49.517Z,10.57
2019-05-15T03:19:19.346Z,9.27
2019-05-15T03:22:09.783Z,9.70
2019-05-15T03:24:39.703Z,11.13
2019-05-15T03:27:09.365Z,10.30
2019-05-15T03:29:40.304Z,10.97
2019-05-15T03:32:25.560Z,9.73
2019-05-15T03:34:47.782Z,10.03
2019-05-15T03:37:13.159Z,9.67
2019-05-15T03:39:46.687Z,10.43
2019-05-15T03:42:13.774Z,9.40
2019-05-15T03:44:43.221Z,10.90
2019-05-15T03:47:12.667Z,8.30
2019-05-15T03:49:42.046Z,9.47
2019-05-15T03:52:11.511Z,9.03
2019-05-15T03:54:40.938Z,10.70
2019-05-15T03:57:10.394Z,9.53
2019-05-15T03:59:40.093Z,9.47
2019-05-15T04:02:09.662Z,10.13
2019-05-15T04:04:39.221Z,9.33
2019-05-15T04:07:09.416Z,9.37
2019-05-15T04:09:39.207Z,8.87
2019-05-15T04:12:09.442Z,10.67
2019-05-15T04:14:39.609Z,9.27
2019-05-15T04:17:09.302Z,9.23
2019-05-15T04:19:39.393Z,10.90
2019-05-15T04:22:09.311Z,9.53
2019-05-15T04:24:39.881Z,9.93
2019-05-15T04:27:10.657Z,8.30
2019-05-15T04:29:40.424Z,9.57
2019-05-15T04:32:10.885Z,9.17
2019-05-15T04:34:40.527Z,8.70
2019-05-15T04:37:09.968Z,10.10
2019-05-15T04:39:40.160Z,10.40
2019-05-15T04:42:09.682Z,8.50
2019-05-15T04:44:39.663Z,8.93
2019-05-15T04:47:09.893Z,9.07
2019-05-15T04:49:40.403Z,11.77
2019-05-15T04:52:10.425Z,8.73
2019-05-15T04:54:40.442Z,9.83
2019-05-15T04:57:09.985Z,10.33
2019-05-15T04:59:39.411Z,9.53
2019-05-15T05:02:17.546Z,10.30
2019-05-15T05:04:39.908Z,8.97
2019-05-15T05:07:09.628Z,9.70
2019-05-15T05:09:39.186Z,8.67
2019-05-15T05:12:08.697Z,9.67
2019-05-15T05:14:39.110Z,9.50
2019-05-15T05:17:09.337Z,8.13
2019-05-15T05:19:40.213Z,9.33
2019-05-15T05:22:09.835Z,8.43
2019-05-15T05:24:39.289Z,10.13
2019-05-15T05:27:08.827Z,10.80
2019-05-15T05:30:03.854Z,7.47
2019-05-15T05:38:29.813Z,7.53
2019-05-15T05:40:59.222Z,10.23
2019-05-15T05:43:31.821Z,9.37
2019-05-15T05:46:01.299Z,8.73
2019-05-15T05:48:30.770Z,8.40
2019-05-15T05:51:00.276Z,7.73
2019-05-15T05:53:29.698Z,8.07
2019-05-15T05:55:59.097Z,8.67
2019-05-15T05:58:29.672Z,7.77
2019-05-15T06:00:59.252Z,9.33
2019-05-15T06:03:28.713Z,7.63
2019-05-15T06:05:59.015Z,8.00
2019-05-15T06:08:28.853Z,9.03
2019-05-15T06:10:58.679Z,8.37
2019-05-15T06:13:29.165Z,8.53
2019-05-15T06:15:59.088Z,7.93
2019-05-15T06:18:28.732Z,7.70
2019-05-15T06:20:58.827Z,8.10
2019-05-15T06:23:35.078Z,7.03
2019-05-15T06:25:59.500Z,8.90
2019-05-15T06:28:29.235Z,8.70
2019-05-15T06:31:00.711Z,6.80
2019-05-15T06:33:29.920Z,7.73
2019-05-15T06:36:00.337Z,6.63
2019-05-15T06:38:30.830Z,6.60
2019-05-15T06:41:00.583Z,7.20
2019-05-15T06:43:29.995Z,7.23
2019-05-15T06:45:59.455Z,6.10
2019-05-15T06:48:29.037Z,6.63
2019-05-15T06:50:58.449Z,5.63
2019-05-15T06:53:29.035Z,7.83
2019-05-15T06:55:59.713Z,6.97
2019-05-15T06:58:29.164Z,6.70
2019-05-15T07:00:59.519Z,6.77
2019-05-15T07:03:29.572Z,5.77
2019-05-15T07:05:59.903Z,7.57
2019-05-15T07:08:29.480Z,5.93
2019-05-15T07:10:58.976Z,5.23
2019-05-15T07:13:29.006Z,6.47
2019-05-15T07:15:58.726Z,6.40
2019-05-15T07:18:28.466Z,8.37
2019-05-15T07:20:58.245Z,6.13
2019-05-15T07:23:30.549Z,5.97
2019-05-15T07:25:58.898Z,6.80
2019-05-15T07:28:28.968Z,9.40
2019-05-15T07:30:58.522Z,4.93
2019-05-15T07:33:38.706Z,4.97
2019-05-15T07:35:59.232Z,4.63
2019-05-15T07:38:28.679Z,4.27
2019-05-15T07:41:03.814Z,4.43
2019-05-15T07:43:29.207Z,3.30
2019-05-15T07:45:59.157Z,4.13
2019-05-15T07:48:29.141Z,3.73
2019-05-15T07:50:59.393Z,3.60
2019-05-15T07:53:29.118Z,6.23
2019-05-15T07:56:01.138Z,4.63
2019-05-15T07:58:31.096Z,5.10
2019-05-15T08:01:00.500Z,2.33
2019-05-15T08:03:29.921Z,4.17
2019-05-15T08:06:02.972Z,3.67
2019-05-15T08:08:30.407Z,2.40
2019-05-15T08:11:15.855Z,4.30
2019-05-15T08:13:30.928Z,3.37
2019-05-15T08:16:00.375Z,2.50
2019-05-15T08:18:29.805Z,2.73
2019-05-15T08:20:59.242Z,2.60
2019-05-15T08:23:28.654Z,4.80
2019-05-15T08:25:58.110Z,3.73
2019-05-15T08:28:28.707Z,2.23
2019-05-15T08:30:58.765Z,1.40
2019-05-15T08:33:28.240Z,2.90
2019-05-15T08:35:58.871Z,1.97
2019-05-15T08:38:28.862Z,3.67
2019-05-15T08:40:59.279Z,2.57
2019-05-15T08:43:31.243Z,2.40
2019-05-15T08:45:59.839Z,3.67
2019-05-15T08:48:32.627Z,2.10
2019-05-15T08:53:59.981Z,3.60
2019-05-15T08:56:29.888Z,4.23
2019-05-15T08:58:59.388Z,2.73
2019-05-15T09:01:28.925Z,3.23
2019-05-15T09:03:59.020Z,2.90
2019-05-15T09:06:29.172Z,3.53
2019-05-15T09:09:00.164Z,3.40
2019-05-15T09:11:29.654Z,1.77
2019-05-15T09:14:00.068Z,2.37
2019-05-15T09:16:29.731Z,2.33
2019-05-15T09:18:59.355Z,3.33
2019-05-15T09:21:28.725Z,2.80
2019-05-15T09:23:58.867Z,1.90
2019-05-15T09:26:28.503Z,2.10
2019-05-15T09:28:58.477Z,1.97
2019-05-15T09:31:28.584Z,2.57
2019-05-15T09:33:58.718Z,2.20
2019-05-15T09:36:28.989Z,1.70
2019-05-15T09:38:58.722Z,2.40
2019-05-15T09:41:28.834Z,2.17
2019-05-15T09:43:58.589Z,1.77
2019-05-15T09:46:29.122Z,2.73
2019-05-15T09:48:59.870Z,2.37
2019-05-15T09:51:31.035Z,2.93
2019-05-15T09:54:00.516Z,3.33
2019-05-15T09:56:33.417Z,3.00
2019-05-15T09:59:03.186Z,1.50
2019-05-15T10:01:32.663Z,1.93
2019-05-15T10:04:02.054Z,3.10
2019-05-15T10:06:31.524Z,2.87
2019-05-15T10:09:01.000Z,2.53
2019-05-15T10:11:30.486Z,1.77
2019-05-15T10:13:59.977Z,3.10
2019-05-15T10:16:29.468Z,3.30
2019-05-15T10:19:00.919Z,3.77
2019-05-15T10:21:32.559Z,2.67
2019-05-15T10:24:01.501Z,2.00
2019-05-15T10:26:31.241Z,2.93
2019-05-15T10:29:01.525Z,3.47
2019-05-15T10:31:30.983Z,2.73
2019-05-15T10:34:00.456Z,3.97
2019-05-15T10:36:29.930Z,2.40
2019-05-15T10:39:01.116Z,2.57
2019-05-15T10:41:30.605Z,4.20
2019-05-15T10:44:00.655Z,1.77
2019-05-15T10:46:30.362Z,2.47
2019-05-15T10:49:00.224Z,4.23
2019-05-15T10:51:29.707Z,4.13
2019-05-15T10:53:59.165Z,2.87
2019-05-15T10:56:29.668Z,4.20
2019-05-15T10:58:59.375Z,2.37
2019-05-15T11:01:28.811Z,3.27
2019-05-15T11:04:00.223Z,2.97
2019-05-15T11:06:29.777Z,4.90
2019-05-15T11:08:59.186Z,2.93
2019-05-15T11:11:28.645Z,2.00
2019-05-15T11:14:00.572Z,2.97
2019-05-15T11:16:31.264Z,2.50
2019-05-15T11:19:02.232Z,2.50
2019-05-15T11:21:33.756Z,1.97
2019-05-15T11:24:03.234Z,2.73
2019-05-15T11:26:33.606Z,3.97
2019-05-15T11:29:09.406Z,2.87
2019-05-15T11:31:39.334Z,2.47
2019-05-15T11:34:09.435Z,3.00
2019-05-15T11:36:43.014Z,4.07
2019-05-15T11:39:12.601Z,3.20
2019-05-15T11:41:43.694Z,4.80
2019-05-15T11:44:13.371Z,2.50
2019-05-15T11:46:43.019Z,2.70
2019-05-15T11:49:15.232Z,2.90
2019-05-15T11:51:45.198Z,2.27
2019-05-15T11:54:14.700Z,3.37
2019-05-15T11:59:55.242Z,2.50
2019-05-15T12:02:24.250Z,4.50
2019-05-15T12:04:53.698Z,3.43
2019-05-15T12:07:23.133Z,5.80
2019-05-15T12:09:54.606Z,2.53
2019-05-15T12:12:24.054Z,2.70
2019-05-15T12:14:53.560Z,3.10
2019-05-15T12:17:23.033Z,4.57
2019-05-15T12:20:01.645Z,2.60
2019-05-15T12:22:23.629Z,2.87
2019-05-15T12:24:54.947Z,2.57
2019-05-15T12:27:24.370Z,3.47
2019-05-15T12:29:53.853Z,6.60
2019-05-15T12:32:31.248Z,4.20
2019-05-15T12:34:54.519Z,3.10
2019-05-15T12:37:24.113Z,2.63
2019-05-15T13:00:02.636Z,4.53
2019-05-15T13:02:32.159Z,4.53
2019-05-15T13:05:02.072Z,3.33
2019-05-15T13:07:31.568Z,3.40
2019-05-15T13:10:01.379Z,3.83
2019-05-15T13:12:32.376Z,5.13
2019-05-15T13:15:01.917Z,5.17
2019-05-15T13:17:32.554Z,4.37
2019-05-15T13:20:02.419Z,3.47
2019-05-15T13:22:31.908Z,3.73
2019-05-15T13:25:02.205Z,2.63
2019-05-15T13:27:32.045Z,4.40
2019-05-15T13:30:01.527Z,4.80
2019-05-15T13:32:31.087Z,4.70
2019-05-15T13:35:01.064Z,4.03
2019-05-15T13:37:31.073Z,4.23
2019-05-15T13:40:00.649Z,5.60
2019-05-15T13:42:31.229Z,2.73
2019-05-15T13:45:03.013Z,4.43
2019-05-15T13:47:33.429Z,2.90
2019-05-15T13:50:02.936Z,4.20
2019-05-15T13:52:32.483Z,5.37
2019-05-15T13:55:02.022Z,4.47
2019-05-15T13:57:31.511Z,3.90
2019-05-15T14:00:01.020Z,3.97
2019-05-15T14:02:30.494Z,8.10
2019-05-15T14:05:00.424Z,4.43
2019-05-15T14:07:44.783Z,3.93
2019-05-15T14:10:01.121Z,4.90
2019-05-15T14:12:30.611Z,4.67
2019-05-15T14:15:00.100Z,6.03
2019-05-15T14:17:31.113Z,4.90
2019-05-15T14:20:00.597Z,4.60
2019-05-15T14:22:30.385Z,5.10
2019-05-15T14:24:59.878Z,3.67
2019-05-15T14:27:29.412Z,5.20
2019-05-15T14:29:59.306Z,5.73
2019-05-15T14:32:38.103Z,5.87
2019-05-15T14:34:59.923Z,4.03
2019-05-15T14:37:30.368Z,8.40
2019-05-15T14:39:59.864Z,3.47
2019-05-15T14:42:29.535Z,4.53
2019-05-15T14:44:59.350Z,4.50
2019-05-15T14:47:29.598Z,4.63
2019-05-15T14:49:59.207Z,6.33
2019-05-15T14:52:29.610Z,4.77
2019-05-15T14:54:59.454Z,3.73
2019-05-15T14:57:29.238Z,4.50
2019-05-15T14:59:58.729Z,3.80
2019-05-15T15:02:28.331Z,4.50
2019-05-15T15:04:59.457Z,4.97
2019-05-15T15:10:29.264Z,4.60
2019-05-15T15:12:58.866Z,3.73
2019-05-15T15:15:28.719Z,5.57
2019-05-15T15:17:58.450Z,4.33
2019-05-15T15:20:28.536Z,5.73
2019-05-15T15:22:58.814Z,8.27
2019-05-15T15:25:28.588Z,4.27
2019-05-15T15:33:33.590Z,3.73
2019-05-15T15:36:05.086Z,4.83
2019-05-15T15:38:40.783Z,3.63
2019-05-15T15:41:08.548Z,4.63
2019-05-15T15:43:38.740Z,4.30
2019-05-15T15:46:10.374Z,3.90
2019-05-15T15:48:39.999Z,4.67
2019-05-15T15:51:09.573Z,7.57
2019-05-15T15:53:39.259Z,3.17
2019-05-15T15:56:10.573Z,5.73
2019-05-15T15:58:40.805Z,5.47
2019-05-15T16:01:10.706Z,4.07
2019-05-15T16:03:40.128Z,3.60
2019-05-15T16:06:09.848Z,3.30
2019-05-15T16:08:51.960Z,3.30
2019-05-15T16:11:11.587Z,5.00
2019-05-15T16:13:41.085Z,4.63
2019-05-15T16:16:10.748Z,3.80
2019-05-15T16:18:40.350Z,5.40
2019-05-15T16:21:10.151Z,3.03
2019-05-15T16:23:40.072Z,7.13
2019-05-15T16:26:14.020Z,5.13
2019-05-15T16:28:43.539Z,4.13
2019-05-15T16:31:13.033Z,3.90
2019-05-15T16:33:42.949Z,4.40
2019-05-15T16:36:12.515Z,4.70
2019-05-15T16:38:42.009Z,6.10
2019-05-15T16:41:13.391Z,5.90
2019-05-15T16:43:43.141Z,19.07
2019-05-15T16:46:12.733Z,7.13
2019-05-15T16:48:43.676Z,3.93
2019-05-15T16:51:17.893Z,6.03
2019-05-15T16:53:58.057Z,2.83
2019-05-15T16:59:35.824Z,4.27
2019-05-15T17:02:08.631Z,4.33
2019-05-15T17:04:35.489Z,4.13
2019-05-15T17:07:06.003Z,6.93
2019-05-15T17:09:35.531Z,6.00
2019-05-15T17:12:08.536Z,5.57
2019-05-15T17:14:38.782Z,6.37
2019-05-15T17:17:15.516Z,5.90
2019-05-15T17:19:45.083Z,4.13
2019-05-15T17:22:18.588Z,4.67
2019-05-15T17:24:48.987Z,5.00
2019-05-15T17:27:18.709Z,4.07
2019-05-15T17:29:49.044Z,6.87
2019-05-15T17:32:19.651Z,24.67
2019-05-15T17:34:49.255Z,5.57
2019-05-15T17:37:18.824Z,19.53
2019-05-15T17:39:50.282Z,6.43
2019-05-15T17:45:27.874Z,6.43
2019-05-15T17:47:59.882Z,6.50
2019-05-15T17:50:29.430Z,4.47
2019-05-15T17:53:01.051Z,4.33
2019-05-15T17:55:30.450Z,4.40
2019-05-15T17:58:01.147Z,5.73
2019-05-15T18:00:31.607Z,3.03
2019-05-15T18:03:01.077Z,5.43
2019-05-15T18:05:30.834Z,4.40
2019-05-15T18:08:00.419Z,3.07
2019-05-15T18:10:29.914Z,3.80
2019-05-15T18:12:59.437Z,2.83
2019-05-15T18:15:29.039Z,3.40
2019-05-15T18:17:59.545Z,3.33
2019-05-15T18:20:29.845Z,3.30
2019-05-15T18:23:01.190Z,2.73
2019-05-15T18:25:30.676Z,3.50
2019-05-15T18:31:06.141Z,11.37
2019-05-15T18:33:35.642Z,4.83
2019-05-15T18:36:05.192Z,4.90
2019-05-15T18:38:38.611Z,3.23
2019-05-15T18:41:10.669Z,5.70
2019-05-15T18:43:40.252Z,5.67
2019-05-15T18:46:09.714Z,3.87
2019-05-15T18:48:39.245Z,5.20
2019-05-15T18:51:08.831Z,2.30
2019-05-15T18:53:38.841Z,3.07
2019-05-15T18:56:08.974Z,3.33
2019-05-15T18:58:41.537Z,3.53
2019-05-15T19:01:11.518Z,3.80
2019-05-15T19:03:41.359Z,3.80
2019-05-15T19:06:10.860Z,3.43
2019-05-15T19:08:40.567Z,4.87
2019-05-15T19:11:10.342Z,3.27
2019-05-15T19:13:39.808Z,2.80
2019-05-15T19:16:09.274Z,4.33
2019-05-15T19:18:38.766Z,5.17
2019-05-15T19:21:08.294Z,3.80
2019-05-15T19:23:38.181Z,3.10
2019-05-15T19:26:11.658Z,4.43
2019-05-15T19:28:40.290Z,3.20
2019-05-15T19:31:22.063Z,3.97
2019-05-15T19:33:41.301Z,3.33
2019-05-15T19:36:11.001Z,4.20
2019-05-15T19:41:31.535Z,3.77
2019-05-15T19:47:07.913Z,2.47
2019-05-15T19:49:37.882Z,5.70
2019-05-15T19:52:08.552Z,3.43
2019-05-15T19:54:38.266Z,4.73
2019-05-15T19:57:08.114Z,3.60
2019-05-15T19:59:39.970Z,5.27
2019-05-15T20:02:09.537Z,4.33
2019-05-15T20:04:39.357Z,6.10
2019-05-15T20:07:09.631Z,4.57
2019-05-15T20:09:39.678Z,5.70
2019-05-15T20:12:09.682Z,7.67
2019-05-15T20:14:39.654Z,3.97
2019-05-15T20:17:09.408Z,6.43
2019-05-15T20:19:39.546Z,7.27
2019-05-15T20:22:09.435Z,10.97
2019-05-15T20:24:38.975Z,12.43
2019-05-15T20:27:08.669Z,11.73
2019-05-15T20:29:38.457Z,12.03
2019-05-15T20:32:08.319Z,15.60
2019-05-15T20:34:38.251Z,16.73
2019-05-15T20:37:07.918Z,15.03
2019-05-15T20:39:38.620Z,13.73
2019-05-15T20:42:08.862Z,10.63
2019-05-15T20:44:38.846Z,12.63
2019-05-15T20:47:09.338Z,11.40
2019-05-15T20:49:39.406Z,11.37
2019-05-15T20:52:09.086Z,11.53
2019-05-15T20:54:38.771Z,13.00
2019-05-15T20:57:08.991Z,12.73
2019-05-15T20:59:38.926Z,13.20
2019-05-15T21:02:08.505Z,15.67
2019-05-15T21:04:39.588Z,14.03
2019-05-15T21:07:11.013Z,12.77
2019-05-15T21:09:40.611Z,15.97
2019-05-15T21:12:10.478Z,12.53
2019-05-15T21:14:40.225Z,11.97
2019-05-15T21:17:10.947Z,10.03
2019-05-15T21:19:40.545Z,9.60
2019-05-15T21:22:11.023Z,8.80
2019-05-15T21:24:40.834Z,9.80
2019-05-15T21:27:10.394Z,8.00
2019-05-15T21:29:40.543Z,8.47
2019-05-15T21:32:10.770Z,8.00
2019-05-15T21:34:44.147Z,9.47
2019-05-15T21:37:12.096Z,7.20
2019-05-15T21:42:51.201Z,6.60
2019-05-15T21:45:20.755Z,7.60
2019-05-15T21:47:50.779Z,6.67
2019-05-15T21:50:20.457Z,6.27
2019-05-15T21:52:50.009Z,5.40
2019-05-15T21:58:19.977Z,5.27
2019-05-15T22:00:53.451Z,8.80
2019-05-15T22:03:24.054Z,5.43
2019-05-15T22:05:54.111Z,5.73
2019-05-15T22:08:24.359Z,9.70
2019-05-15T22:10:54.188Z,4.97
2019-05-15T22:13:23.740Z,5.60
2019-05-15T22:15:54.022Z,6.57
2019-05-15T22:18:23.592Z,5.53
2019-05-15T22:20:53.459Z,5.00
2019-05-15T22:23:23.350Z,5.80
2019-05-15T22:25:52.950Z,6.43
2019-05-15T22:28:22.732Z,9.53
2019-05-15T22:30:52.225Z,9.03
2019-05-15T22:33:22.483Z,8.20
2019-05-15T22:35:52.638Z,6.80
2019-05-15T22:38:22.247Z,7.20
2019-05-15T22:40:51.795Z,6.53
2019-05-15T22:43:21.617Z,6.87
2019-05-15T22:45:51.215Z,7.50
2019-05-15T22:48:20.748Z,7.93
2019-05-15T22:50:50.233Z,7.07
2019-05-15T22:53:20.657Z,7.23
2019-05-15T22:55:50.382Z,8.70
2019-05-15T22:58:20.040Z,10.97
2019-05-15T23:00:49.662Z,9.43
2019-05-15T23:03:19.797Z,6.60
2019-05-15T23:05:49.301Z,7.50
2019-05-15T23:08:18.969Z,8.37
2019-05-15T23:10:48.698Z,8.07
2019-05-15T23:13:18.224Z,8.90
2019-05-15T23:15:47.792Z,9.27
2019-05-15T23:18:17.978Z,8.23
2019-05-15T23:20:47.934Z,8.37
2019-05-15T23:23:18.172Z,7.53
2019-05-15T23:25:48.531Z,6.97
2019-05-15T23:28:18.540Z,9.77
2019-05-15T23:30:48.550Z,7.83
2019-05-15T23:33:18.857Z,8.47
2019-05-15T23:35:48.679Z,8.10
2019-05-15T23:38:18.240Z,9.57
2019-05-15T23:40:48.429Z,7.77
2019-05-15T23:43:18.978Z,8.20
2019-05-15T23:45:48.722Z,10.47
2019-05-15T23:48:18.229Z,8.30
2019-05-15T23:50:48.621Z,8.13
2019-05-15T23:53:19.702Z,10.03
2019-05-15T23:55:49.490Z,8.97
2019-05-15T23:58:19.182Z,8.90
